Back to top

Cheyenne, WY weather

Cheyenne Regional/Jerry Olson Field, Cheyenne, WY: 1/20/2021 23:53
Visibility10 statute milesclear sky
View 7-Day Forecast
Area Summary
Sky/CloudsSky Clear
Weather [last 24 hours]None
Pressure29.94 in.Hg (1014 hPa)
Dew Point18 °F (-7.8 °C)
Relative Humidity45.5 %
Temperature37 °F (2.8 °C)red thermometer
Wind Chill27.3 °F (-2.61 °C) @ gust 25.8 °F (-3.44 °C)
Reading TimeMinimum to Maximum Temperature
6-hr ending 1/20@22:5333.1 °F to 42.1 °F (0.6 °C to 5.6 °C)
6-hr ending 1/20@16:5342.1 °F to 48.9 °F (5.6 °C to 9.4 °C)
6-hr ending 1/20@10:5332 °F to 44.1 °F (0 °C to 6.7 °C)
6-hr ending 1/20@04:5319.9 °F to 34 °F (-6.7 °C to 1.1 °C)
24-hr ending 1/20@23:5323 °F to 48.9 °F (-5 °C to 9.4 °C)
Wind17.3 MPH (15 KT) gusting to 23 MPH (20 KT)green arrow pointing 270 degrees
Wind FromWest (260 Degrees)
Rolling 24-hr Peak Wind73.7 MPH (64 KT) on 1/20@12:05
Rolling 24-hr Peak Wind FromWest (280 Degrees)
Twilight Begins06:47Sunshine Yesterday
Sunrise07:17N/A
Sunset17:05
Twilight Ends17:35
METARKCYS 210653Z AUTO 26015G20KT 10SM CLR 03/M08 A2994 RMK AO2 SLP123 T00281078 400941050
Tags: